BYT weather

Bantry Aerodrome
Bantry, County Cork, Ireland

Public forecast

Using degrees Celsius for public forecast. Weather courtesy of forecast.io.

Closest aviation weather report (METAR) to Bantry Aerodrome

Report is more than 6 hours old.

Closest report is Kerry Airport, 30.8 nm (57.0 km) N. Retrieved 2020/07/12 18:30 UTC (10 hours ago):

EIKY 121830Z 20007KT 170V230 9999 -RA SCT022 BKN031 OVC037 16/14 Q1025

Closest aviation forecast (TAF) to Bantry Aerodrome

Closest forecast is Cork Airport, 38.3 nm (71.0 km) ENE. Retrieved 2020-07-13 00:00 UTC (4 hours ago):

TAF COR EICK 122354Z 1300/1324 21012KT 5000 -RA BKN005 TEMPO 1300/1310 0300 -RADZ FG OVC001 BECMG 1308/1310 26008KT BECMG 1311/1313 32010KT 9999 NSW BKN020